sensor_id;sensor_type;location;lat;lon;timestamp;pressure;altitude;pressure_sealevel;temperature;humidity
54262;BME280;40174;52.364;6.452;2023-06-14T00:02:14;101392.53;;;18.79;52.31
54262;BME280;40174;52.364;6.452;2023-06-14T00:04:41;101388.63;;;18.74;52.70
54262;BME280;40174;52.364;6.452;2023-06-14T00:07:08;101383.59;;;18.70;52.84
54262;BME280;40174;52.364;6.452;2023-06-14T00:09:35;101392.94;;;18.66;53.19
54262;BME280;40174;52.364;6.452;2023-06-14T00:12:02;101386.56;;;18.59;53.91
54262;BME280;40174;52.364;6.452;2023-06-14T00:14:30;101383.69;;;18.53;54.07
54262;BME280;40174;52.364;6.452;2023-06-14T00:16:56;101385.34;;;18.45;54.44
54262;BME280;40174;52.364;6.452;2023-06-14T00:19:23;101380.78;;;18.38;55.00
54262;BME280;40174;52.364;6.452;2023-06-14T00:21:50;101381.41;;;18.32;55.12
54262;BME280;40174;52.364;6.452;2023-06-14T00:24:18;101389.25;;;18.25;55.24
54262;BME280;40174;52.364;6.452;2023-06-14T00:26:44;101384.72;;;18.17;55.53
54262;BME280;40174;52.364;6.452;2023-06-14T00:29:11;101386.03;;;18.13;56.16
54262;BME280;40174;52.364;6.452;2023-06-14T00:31:39;101388.19;;;18.10;56.16
54262;BME280;40174;52.364;6.452;2023-06-14T00:34:05;101391.50;;;18.03;56.68
54262;BME280;40174;52.364;6.452;2023-06-14T00:36:32;101387.59;;;17.98;56.60
54262;BME280;40174;52.364;6.452;2023-06-14T00:38:59;101386.28;;;17.94;57.11
54262;BME280;40174;52.364;6.452;2023-06-14T00:41:25;101391.41;;;17.87;57.26
54262;BME280;40174;52.364;6.452;2023-06-14T00:43:52;101397.34;;;17.81;57.32
54262;BME280;40174;52.364;6.452;2023-06-14T00:46:21;101393.16;;;17.78;57.34
54262;BME280;40174;52.364;6.452;2023-06-14T00:48:50;101400.09;;;17.71;58.32
54262;BME280;40174;52.364;6.452;2023-06-14T00:51:17;101402.72;;;17.63;58.64
54262;BME280;40174;52.364;6.452;2023-06-14T00:53:44;101403.88;;;17.60;58.83
54262;BME280;40174;52.364;6.452;2023-06-14T00:56:12;101403.81;;;17.52;58.97
54262;BME280;40174;52.364;6.452;2023-06-14T00:58:41;101406.13;;;17.47;58.99
54262;BME280;40174;52.364;6.452;2023-06-14T01:01:08;101407.41;;;17.43;59.61
54262;BME280;40174;52.364;6.452;2023-06-14T01:03:34;101405.19;;;17.38;59.95
54262;BME280;40174;52.364;6.452;2023-06-14T01:06:09;101406.34;;;17.36;59.87
54262;BME280;40174;52.364;6.452;2023-06-14T01:08:44;101411.97;;;17.33;59.83
54262;BME280;40174;52.364;6.452;2023-06-14T01:11:18;101405.28;;;17.29;59.94
54262;BME280;40174;52.364;6.452;2023-06-14T01:13:48;101409.25;;;17.24;60.31
54262;BME280;40174;52.364;6.452;2023-06-14T01:16:17;101395.81;;;17.16;60.82
54262;BME280;40174;52.364;6.452;2023-06-14T01:18:45;101404.97;;;17.14;60.72
54262;BME280;40174;52.364;6.452;2023-06-14T01:21:21;101398.25;;;17.10;60.36
54262;BME280;40174;52.364;6.452;2023-06-14T01:23:50;101403.59;;;17.10;60.92
54262;BME280;40174;52.364;6.452;2023-06-14T01:26:19;101403.91;;;17.07;60.99
54262;BME280;40174;52.364;6.452;2023-06-14T01:28:45;101398.16;;;17.01;61.49
54262;BME280;40174;52.364;6.452;2023-06-14T01:31:17;101393.44;;;16.95;61.86
54262;BME280;40174;52.364;6.452;2023-06-14T01:33:44;101394.72;;;16.91;61.68
54262;BME280;40174;52.364;6.452;2023-06-14T01:36:12;101400.34;;;16.88;61.91
54262;BME280;40174;52.364;6.452;2023-06-14T01:38:39;101402.38;;;16.86;62.61
54262;BME280;40174;52.364;6.452;2023-06-14T01:41:08;101400.28;;;16.80;62.16
54262;BME280;40174;52.364;6.452;2023-06-14T01:43:36;101408.53;;;16.77;62.29
54262;BME280;40174;52.364;6.452;2023-06-14T01:46:05;101408.16;;;16.72;63.15
54262;BME280;40174;52.364;6.452;2023-06-14T01:48:32;101406.94;;;16.66;63.71
54262;BME280;40174;52.364;6.452;2023-06-14T01:50:59;101400.22;;;16.62;63.70
54262;BME280;40174;52.364;6.452;2023-06-14T01:53:25;101402.19;;;16.60;63.79
54262;BME280;40174;52.364;6.452;2023-06-14T01:55:52;101391.13;;;16.55;64.00
54262;BME280;40174;52.364;6.452;2023-06-14T01:58:21;101397.31;;;16.55;63.30
54262;BME280;40174;52.364;6.452;2023-06-14T02:00:49;101397.59;;;16.52;63.51
54262;BME280;40174;52.364;6.452;2023-06-14T02:03:16;101403.22;;;16.49;64.23
54262;BME280;40174;52.364;6.452;2023-06-14T02:05:45;101394.13;;;16.42;65.00
54262;BME280;40174;52.364;6.452;2023-06-14T02:08:11;101397.25;;;16.37;64.48
54262;BME280;40174;52.364;6.452;2023-06-14T02:10:38;101398.38;;;16.35;64.65
54262;BME280;40174;52.364;6.452;2023-06-14T02:13:04;101398.66;;;16.32;65.01
54262;BME280;40174;52.364;6.452;2023-06-14T02:15:32;101404.44;;;16.27;64.87
54262;BME280;40174;52.364;6.452;2023-06-14T02:18:01;101403.91;;;16.24;65.15
54262;BME280;40174;52.364;6.452;2023-06-14T02:20:28;101398.16;;;16.18;65.57
54262;BME280;40174;52.364;6.452;2023-06-14T02:22:56;101396.94;;;16.13;66.13
54262;BME280;40174;52.364;6.452;2023-06-14T02:25:23;101394.41;;;16.11;66.08
54262;BME280;40174;52.364;6.452;2023-06-14T02:27:49;101391.19;;;16.08;66.34
54262;BME280;40174;52.364;6.452;2023-06-14T02:30:16;101404.78;;;16.05;66.11
54262;BME280;40174;52.364;6.452;2023-06-14T02:32:44;101400.59;;;16.02;65.97
54262;BME280;40174;52.364;6.452;2023-06-14T02:35:12;101405.22;;;16.00;66.02
54262;BME280;40174;52.364;6.452;2023-06-14T02:37:38;101400.19;;;15.97;66.65
54262;BME280;40174;52.364;6.452;2023-06-14T02:40:06;101402.31;;;15.93;66.81
54262;BME280;40174;52.364;6.452;2023-06-14T02:42:34;101397.28;;;15.90;67.01
54262;BME280;40174;52.364;6.452;2023-06-14T02:45:04;101402.88;;;15.87;67.56
54262;BME280;40174;52.364;6.452;2023-06-14T02:47:30;101397.84;;;15.84;67.70
54262;BME280;40174;52.364;6.452;2023-06-14T02:49:58;101405.13;;;15.82;68.31
54262;BME280;40174;52.364;6.452;2023-06-14T02:52:25;101405.44;;;15.79;68.25
54262;BME280;40174;52.364;6.452;2023-06-14T02:54:52;101400.38;;;15.76;67.89
54262;BME280;40174;52.364;6.452;2023-06-14T02:57:19;101406.84;;;15.73;68.02
54262;BME280;40174;52.364;6.452;2023-06-14T02:59:46;101406.25;;;15.70;68.47
54262;BME280;40174;52.364;6.452;2023-06-14T03:02:13;101404.16;;;15.64;68.67
54262;BME280;40174;52.364;6.452;2023-06-14T03:04:40;101412.28;;;15.62;68.85
54262;BME280;40174;52.364;6.452;2023-06-14T03:07:14;101411.75;;;15.58;69.14
54262;BME280;40174;52.364;6.452;2023-06-14T03:09:46;101416.38;;;15.56;69.59
54262;BME280;40174;52.364;6.452;2023-06-14T03:12:14;101416.78;;;15.52;69.80
54262;BME280;40174;52.364;6.452;2023-06-14T03:14:41;101432.34;;;15.47;70.22
54262;BME280;40174;52.364;6.452;2023-06-14T03:17:13;101428.44;;;15.41;71.07
54262;BME280;40174;52.364;6.452;2023-06-14T03:19:42;101432.34;;;15.37;71.12
54262;BME280;40174;52.364;6.452;2023-06-14T03:22:09;101431.50;;;15.36;71.07
54262;BME280;40174;52.364;6.452;2023-06-14T03:24:39;101428.28;;;15.33;71.91
54262;BME280;40174;52.364;6.452;2023-06-14T03:27:10;101429.28;;;15.32;71.03
54262;BME280;40174;52.364;6.452;2023-06-14T03:29:41;101441.06;;;15.29;71.23
54262;BME280;40174;52.364;6.452;2023-06-14T03:32:08;101440.88;;;15.31;71.48
54262;BME280;40174;52.364;6.452;2023-06-14T03:34:41;101443.84;;;15.28;71.08
54262;BME280;40174;52.364;6.452;2023-06-14T03:37:13;101442.31;;;15.25;71.93
54262;BME280;40174;52.364;6.452;2023-06-14T03:39:41;101443.25;;;15.24;71.92
54262;BME280;40174;52.364;6.452;2023-06-14T03:42:14;101451.25;;;15.24;71.62
54262;BME280;40174;52.364;6.452;2023-06-14T03:44:42;101444.56;;;15.20;72.30
54262;BME280;40174;52.364;6.452;2023-06-14T03:47:09;101457.84;;;15.20;72.34
54262;BME280;40174;52.364;6.452;2023-06-14T03:49:36;101454.50;;;15.18;72.50
54262;BME280;40174;52.364;6.452;2023-06-14T03:52:03;101451.97;;;15.16;73.35
54262;BME280;40174;52.364;6.452;2023-06-14T03:54:31;101462.03;;;15.13;73.53
54262;BME280;40174;52.364;6.452;2023-06-14T03:57:00;101458.66;;;15.11;73.79
54262;BME280;40174;52.364;6.452;2023-06-14T03:59:26;101448.28;;;15.08;73.66
54262;BME280;40174;52.364;6.452;2023-06-14T04:01:54;101459.78;;;15.08;74.11
54262;BME280;40174;52.364;6.452;2023-06-14T04:04:21;101458.81;;;15.09;74.33
54262;BME280;40174;52.364;6.452;2023-06-14T04:06:55;101458.81;;;15.09;74.84
54262;BME280;40174;52.364;6.452;2023-06-14T04:09:23;101472.25;;;15.08;74.98
54262;BME280;40174;52.364;6.452;2023-06-14T04:11:51;101476.59;;;15.09;74.87
54262;BME280;40174;52.364;6.452;2023-06-14T04:14:19;101475.91;;;15.07;75.46
54262;BME280;40174;52.364;6.452;2023-06-14T04:16:46;101477.59;;;15.08;75.80
54262;BME280;40174;52.364;6.452;2023-06-14T04:19:15;101480.53;;;15.05;75.27
54262;BME280;40174;52.364;6.452;2023-06-14T04:21:42;101477.72;;;15.06;75.28
54262;BME280;40174;52.364;6.452;2023-06-14T04:24:09;101486.41;;;15.08;75.57
54262;BME280;40174;52.364;6.452;2023-06-14T04:26:39;101483.75;;;15.08;76.08
54262;BME280;40174;52.364;6.452;2023-06-14T04:29:05;101486.41;;;15.08;77.32
54262;BME280;40174;52.364;6.452;2023-06-14T04:31:42;101488.94;;;15.10;75.87
54262;BME280;40174;52.364;6.452;2023-06-14T04:34:10;101488.81;;;15.11;75.80
54262;BME280;40174;52.364;6.452;2023-06-14T04:36:44;101493.97;;;15.13;75.94
54262;BME280;40174;52.364;6.452;2023-06-14T04:39:15;101499.06;;;15.16;76.75
54262;BME280;40174;52.364;6.452;2023-06-14T04:41:43;101500.59;;;15.18;77.91
54262;BME280;40174;52.364;6.452;2023-06-14T04:44:10;101503.13;;;15.20;76.39
54262;BME280;40174;52.364;6.452;2023-06-14T04:46:43;101508.16;;;15.23;76.22
54262;BME280;40174;52.364;6.452;2023-06-14T04:49:15;101504.50;;;15.24;76.53
54262;BME280;40174;52.364;6.452;2023-06-14T04:51:43;101509.59;;;15.27;75.77
54262;BME280;40174;52.364;6.452;2023-06-14T04:54:10;101520.78;;;15.31;76.89
54262;BME280;40174;52.364;6.452;2023-06-14T04:56:40;101516.03;;;15.34;77.30
54262;BME280;40174;52.364;6.452;2023-06-14T04:59:08;101519.13;;;15.39;76.46
54262;BME280;40174;52.364;6.452;2023-06-14T05:01:37;101527.69;;;15.43;76.07
54262;BME280;40174;52.364;6.452;2023-06-14T05:04:05;101521.25;;;15.46;76.44
54262;BME280;40174;52.364;6.452;2023-06-14T05:06:31;101528.94;;;15.49;75.86
54262;BME280;40174;52.364;6.452;2023-06-14T05:08:58;101525.03;;;15.53;75.71
54262;BME280;40174;52.364;6.452;2023-06-14T05:11:25;101525.44;;;15.58;76.03
54262;BME280;40174;52.364;6.452;2023-06-14T05:13:52;101524.19;;;15.62;75.24
54262;BME280;40174;52.364;6.452;2023-06-14T05:16:19;101535.69;;;15.63;74.85
54262;BME280;40174;52.364;6.452;2023-06-14T05:18:48;101529.09;;;15.67;74.12
54262;BME280;40174;52.364;6.452;2023-06-14T05:21:17;101530.53;;;15.71;74.92
54262;BME280;40174;52.364;6.452;2023-06-14T05:23:44;101536.28;;;15.76;75.59
54262;BME280;40174;52.364;6.452;2023-06-14T05:26:10;101535.03;;;15.80;74.60
54262;BME280;40174;52.364;6.452;2023-06-14T05:28:37;101528.44;;;15.84;74.38
54262;BME280;40174;52.364;6.452;2023-06-14T05:31:04;101532.66;;;15.87;74.72
54262;BME280;40174;52.364;6.452;2023-06-14T05:33:30;101540.91;;;15.93;75.22
54262;BME280;40174;52.364;6.452;2023-06-14T05:35:57;101530.84;;;15.97;74.11
54262;BME280;40174;52.364;6.452;2023-06-14T05:38:25;101543.59;;;16.03;74.07
54262;BME280;40174;52.364;6.452;2023-06-14T05:40:51;101544.84;;;16.09;73.54
54262;BME280;40174;52.364;6.452;2023-06-14T05:43:18;101546.78;;;16.16;72.59
54262;BME280;40174;52.364;6.452;2023-06-14T05:45:45;101545.81;;;16.17;72.36
54262;BME280;40174;52.364;6.452;2023-06-14T05:48:11;101547.06;;;16.23;72.59
54262;BME280;40174;52.364;6.452;2023-06-14T05:50:38;101556.63;;;16.26;72.70
54262;BME280;40174;52.364;6.452;2023-06-14T05:53:05;101556.19;;;16.30;71.91
54262;BME280;40174;52.364;6.452;2023-06-14T05:55:32;101556.59;;;16.35;71.53
54262;BME280;40174;52.364;6.452;2023-06-14T05:57:59;101562.75;;;16.46;71.61
54262;BME280;40174;52.364;6.452;2023-06-14T06:00:26;101564.16;;;16.50;70.58
54262;BME280;40174;52.364;6.452;2023-06-14T06:02:53;101565.09;;;16.58;70.46
54262;BME280;40174;52.364;6.452;2023-06-14T06:05:22;101567.88;;;16.76;69.33
54262;BME280;40174;52.364;6.452;2023-06-14T06:07:49;101570.28;;;16.79;68.99
54262;BME280;40174;52.364;6.452;2023-06-14T06:10:15;101566.50;;;16.82;68.81
54262;BME280;40174;52.364;6.452;2023-06-14T06:12:43;101571.78;;;16.92;68.15
54262;BME280;40174;52.364;6.452;2023-06-14T06:15:10;101574.41;;;17.01;68.00
54262;BME280;40174;52.364;6.452;2023-06-14T06:17:38;101570.88;;;17.11;66.76
54262;BME280;40174;52.364;6.452;2023-06-14T06:20:05;101570.69;;;17.22;66.33
54262;BME280;40174;52.364;6.452;2023-06-14T06:22:33;101573.28;;;17.32;66.65
54262;BME280;40174;52.364;6.452;2023-06-14T06:25:00;101570.97;;;17.47;65.60
54262;BME280;40174;52.364;6.452;2023-06-14T06:27:26;101581.44;;;17.58;64.13
54262;BME280;40174;52.364;6.452;2023-06-14T06:29:54;101579.19;;;17.71;64.23
54262;BME280;40174;52.364;6.452;2023-06-14T06:32:21;101581.97;;;17.79;63.68
54262;BME280;40174;52.364;6.452;2023-06-14T06:34:48;101584.59;;;17.89;62.83
54262;BME280;40174;52.364;6.452;2023-06-14T06:37:14;101597.75;;;18.00;61.92
54262;BME280;40174;52.364;6.452;2023-06-14T06:39:41;101580.78;;;18.10;60.63
54262;BME280;40174;52.364;6.452;2023-06-14T06:42:07;101591.72;;;18.16;60.52
54262;BME280;40174;52.364;6.452;2023-06-14T06:44:36;101588.31;;;18.32;60.04
54262;BME280;40174;52.364;6.452;2023-06-14T06:47:05;101597.91;;;18.43;59.89
54262;BME280;40174;52.364;6.452;2023-06-14T06:49:31;101598.53;;;18.55;60.37
54262;BME280;40174;52.364;6.452;2023-06-14T06:52:02;101597.94;;;18.69;59.37
54262;BME280;40174;52.364;6.452;2023-06-14T06:54:28;101605.72;;;18.80;58.59
54262;BME280;40174;52.364;6.452;2023-06-14T06:56:55;101607.50;;;18.98;58.28
54262;BME280;40174;52.364;6.452;2023-06-14T06:59:22;101605.09;;;19.13;56.73
54262;BME280;40174;52.364;6.452;2023-06-14T07:01:49;101609.66;;;19.28;56.53
54262;BME280;40174;52.364;6.452;2023-06-14T07:04:17;101614.41;;;19.43;56.14
54262;BME280;40174;52.364;6.452;2023-06-14T07:06:43;101614.28;;;19.61;56.43
54262;BME280;40174;52.364;6.452;2023-06-14T07:09:10;101616.88;;;19.79;56.38
54262;BME280;40174;52.364;6.452;2023-06-14T07:11:40;101622.28;;;20.03;54.61
54262;BME280;40174;52.364;6.452;2023-06-14T07:14:07;101625.81;;;20.20;52.74
54262;BME280;40174;52.364;6.452;2023-06-14T07:16:33;101628.81;;;20.33;52.79
54262;BME280;40174;52.364;6.452;2023-06-14T07:19:01;101620.28;;;20.46;52.79
54262;BME280;40174;52.364;6.452;2023-06-14T07:21:29;101624.81;;;20.62;51.95
54262;BME280;40174;52.364;6.452;2023-06-14T07:23:56;101621.25;;;20.78;52.10
54262;BME280;40174;52.364;6.452;2023-06-14T07:26:23;101629.97;;;20.96;52.04
54262;BME280;40174;52.364;6.452;2023-06-14T07:28:50;101628.72;;;21.15;51.88
54262;BME280;40174;52.364;6.452;2023-06-14T07:31:18;101635.41;;;21.28;50.43
54262;BME280;40174;52.364;6.452;2023-06-14T07:33:44;101643.25;;;21.46;50.53
54262;BME280;40174;52.364;6.452;2023-06-14T07:36:11;101642.00;;;21.56;50.37
54262;BME280;40174;52.364;6.452;2023-06-14T07:38:39;101643.25;;;21.77;49.40
54262;BME280;40174;52.364;6.452;2023-06-14T07:41:06;101651.94;;;21.87;49.24
54262;BME280;40174;52.364;6.452;2023-06-14T07:43:32;101647.47;;;22.03;47.88
54262;BME280;40174;52.364;6.452;2023-06-14T07:45:59;101642.31;;;22.16;48.83
54262;BME280;40174;52.364;6.452;2023-06-14T07:48:26;101650.66;;;22.29;47.26
54262;BME280;40174;52.364;6.452;2023-06-14T07:50:52;101642.16;;;22.40;47.45
54262;BME280;40174;52.364;6.452;2023-06-14T07:53:19;101657.06;;;22.51;46.18
54262;BME280;40174;52.364;6.452;2023-06-14T07:55:47;101643.31;;;22.61;45.79
54262;BME280;40174;52.364;6.452;2023-06-14T07:58:14;101647.78;;;22.69;45.17
54262;BME280;40174;52.364;6.452;2023-06-14T08:00:40;101662.41;;;22.89;44.36
54262;BME280;40174;52.364;6.452;2023-06-14T08:03:07;101656.25;;;22.95;44.06
54262;BME280;40174;52.364;6.452;2023-06-14T08:05:33;101655.19;;;23.04;43.45
54262;BME280;40174;52.364;6.452;2023-06-14T08:08:00;101659.44;;;23.14;42.57
54262;BME280;40174;52.364;6.452;2023-06-14T08:10:27;101656.94;;;23.27;42.39
54262;BME280;40174;52.364;6.452;2023-06-14T08:12:55;101650.91;;;23.40;42.22
54262;BME280;40174;52.364;6.452;2023-06-14T08:15:22;101653.22;;;23.43;41.77
54262;BME280;40174;52.364;6.452;2023-06-14T08:17:48;101659.34;;;23.52;41.47
54262;BME280;40174;52.364;6.452;2023-06-14T08:20:15;101652.44;;;23.64;40.79
54262;BME280;40174;52.364;6.452;2023-06-14T08:22:42;101654.50;;;23.77;41.35
54262;BME280;40174;52.364;6.452;2023-06-14T08:25:09;101656.94;;;23.93;40.65
54262;BME280;40174;52.364;6.452;2023-06-14T08:27:36;101660.94;;;23.97;40.04
54262;BME280;40174;52.364;6.452;2023-06-14T08:30:05;101668.13;;;24.12;39.74
54262;BME280;40174;52.364;6.452;2023-06-14T08:32:33;101663.44;;;24.20;37.85
54262;BME280;40174;52.364;6.452;2023-06-14T08:34:59;101657.28;;;24.26;38.00
54262;BME280;40174;52.364;6.452;2023-06-14T08:37:26;101657.34;;;24.33;37.82
54262;BME280;40174;52.364;6.452;2023-06-14T08:39:53;101658.13;;;24.48;37.11
54262;BME280;40174;52.364;6.452;2023-06-14T08:42:20;101655.47;;;24.55;36.90
54262;BME280;40174;52.364;6.452;2023-06-14T08:44:47;101662.59;;;24.63;36.71
54262;BME280;40174;52.364;6.452;2023-06-14T08:47:15;101656.66;;;24.74;36.40
54262;BME280;40174;52.364;6.452;2023-06-14T08:49:46;101641.69;;;24.50;36.35
54262;BME280;40174;52.364;6.452;2023-06-14T08:52:15;101647.50;;;24.75;35.61
54262;BME280;40174;52.364;6.452;2023-06-14T08:54:46;101644.66;;;24.83;35.88
54262;BME280;40174;52.364;6.452;2023-06-14T08:57:14;101642.22;;;24.95;35.95
54262;BME280;40174;52.364;6.452;2023-06-14T08:59:46;101654.06;;;25.22;36.18
54262;BME280;40174;52.364;6.452;2023-06-14T09:02:16;101646.00;;;25.36;35.51
54262;BME280;40174;52.364;6.452;2023-06-14T09:04:43;101652.53;;;25.55;35.61
54262;BME280;40174;52.364;6.452;2023-06-14T09:07:10;101651.50;;;25.56;34.59
54262;BME280;40174;52.364;6.452;2023-06-14T09:09:38;101648.81;;;25.62;35.27
54262;BME280;40174;52.364;6.452;2023-06-14T09:12:07;101660.13;;;25.79;35.12
54262;BME280;40174;52.364;6.452;2023-06-14T09:14:36;101646.44;;;25.87;34.44
54262;BME280;40174;52.364;6.452;2023-06-14T09:17:04;101648.94;;;26.02;34.29
54262;BME280;40174;52.364;6.452;2023-06-14T09:19:33;101659.16;;;26.13;33.91
54262;BME280;40174;52.364;6.452;2023-06-14T09:22:00;101653.56;;;26.15;33.60
54262;BME280;40174;52.364;6.452;2023-06-14T09:24:26;101659.63;;;26.24;33.72
54262;BME280;40174;52.364;6.452;2023-06-14T09:26:53;101663.34;;;26.29;32.89
54262;BME280;40174;52.364;6.452;2023-06-14T09:29:20;101647.31;;;26.28;32.90
54262;BME280;40174;52.364;6.452;2023-06-14T09:31:47;101651.25;;;26.45;33.00
54262;BME280;40174;52.364;6.452;2023-06-14T09:34:15;101653.16;;;26.45;33.53
54262;BME280;40174;52.364;6.452;2023-06-14T09:36:44;101647.31;;;26.68;33.34
54262;BME280;40174;52.364;6.452;2023-06-14T09:39:16;101651.91;;;26.61;32.82
54262;BME280;40174;52.364;6.452;2023-06-14T09:41:43;101642.53;;;26.70;33.18
54262;BME280;40174;52.364;6.452;2023-06-14T09:44:11;101652.31;;;26.84;33.02
54262;BME280;40174;52.364;6.452;2023-06-14T09:46:38;101655.88;;;26.78;32.58
54262;BME280;40174;52.364;6.452;2023-06-14T09:49:05;101657.50;;;26.86;32.68
54262;BME280;40174;52.364;6.452;2023-06-14T09:51:32;101656.47;;;26.93;32.33
54262;BME280;40174;52.364;6.452;2023-06-14T09:54:02;101652.91;;;27.00;32.34
54262;BME280;40174;52.364;6.452;2023-06-14T09:56:31;101652.06;;;26.99;32.68
54262;BME280;40174;52.364;6.452;2023-06-14T09:58:59;101654.09;;;27.17;32.87
54262;BME280;40174;52.364;6.452;2023-06-14T10:01:27;101656.59;;;27.19;33.07
54262;BME280;40174;52.364;6.452;2023-06-14T10:04:01;101664.94;;;27.30;32.75
54262;BME280;40174;52.364;6.452;2023-06-14T10:06:29;101651.97;;;27.39;32.07
54262;BME280;40174;52.364;6.452;2023-06-14T10:08:57;101664.03;;;27.50;32.85
54262;BME280;40174;52.364;6.452;2023-06-14T10:11:27;101660.03;;;27.59;31.37
54262;BME280;40174;52.364;6.452;2023-06-14T10:13:55;101658.03;;;27.79;32.34
54262;BME280;40174;52.364;6.452;2023-06-14T10:16:27;101655.06;;;27.94;31.13
54262;BME280;40174;52.364;6.452;2023-06-14T10:19:03;101659.00;;;27.98;30.63
54262;BME280;40174;52.364;6.452;2023-06-14T10:21:36;101674.41;;;28.05;30.77
54262;BME280;40174;52.364;6.452;2023-06-14T10:24:07;101667.72;;;28.07;30.40
54262;BME280;40174;52.364;6.452;2023-06-14T10:26:50;101678.09;;;28.17;29.57
54262;BME280;40174;52.364;6.452;2023-06-14T10:29:17;101668.56;;;28.08;29.96
54262;BME280;40174;52.364;6.452;2023-06-14T10:31:45;101679.81;;;28.11;29.87
54262;BME280;40174;52.364;6.452;2023-06-14T10:34:14;101679.50;;;28.26;29.86
54262;BME280;40174;52.364;6.452;2023-06-14T10:37:00;101676.88;;;28.38;28.74
54262;BME280;40174;52.364;6.452;2023-06-14T10:39:27;101666.41;;;28.48;28.98
54262;BME280;40174;52.364;6.452;2023-06-14T10:41:56;101662.19;;;28.52;28.65
54262;BME280;40174;52.364;6.452;2023-06-14T10:44:49;101665.88;;;28.58;27.84
54262;BME280;40174;52.364;6.452;2023-06-14T10:47:30;101673.56;;;28.36;28.31
54262;BME280;40174;52.364;6.452;2023-06-14T10:50:03;101677.44;;;28.53;29.41
54262;BME280;40174;52.364;6.452;2023-06-14T10:52:33;101668.00;;;28.56;28.73
54262;BME280;40174;52.364;6.452;2023-06-14T10:55:09;101667.72;;;28.64;28.79
54262;BME280;40174;52.364;6.452;2023-06-14T10:57:39;101666.75;;;28.77;28.83
54262;BME280;40174;52.364;6.452;2023-06-14T11:00:07;101658.88;;;28.69;28.75
54262;BME280;40174;52.364;6.452;2023-06-14T11:02:51;101654.34;;;28.63;28.92
54262;BME280;40174;52.364;6.452;2023-06-14T11:05:24;101667.81;;;28.76;28.83
54262;BME280;40174;52.364;6.452;2023-06-14T11:08:07;101653.09;;;28.84;28.87
54262;BME280;40174;52.364;6.452;2023-06-14T11:10:39;101657.72;;;29.01;28.21
54262;BME280;40174;52.364;6.452;2023-06-14T11:13:07;101664.34;;;29.06;28.22
54262;BME280;40174;52.364;6.452;2023-06-14T11:15:36;101666.94;;;29.19;27.95
54262;BME280;40174;52.364;6.452;2023-06-14T11:18:04;101663.56;;;29.23;27.67
54262;BME280;40174;52.364;6.452;2023-06-14T11:20:32;101658.88;;;29.31;28.04
54262;BME280;40174;52.364;6.452;2023-06-14T11:22:59;101656.84;;;29.26;27.40
54262;BME280;40174;52.364;6.452;2023-06-14T11:25:26;101646.84;;;29.01;28.50
54262;BME280;40174;52.364;6.452;2023-06-14T11:27:53;101652.44;;;29.25;27.87
54262;BME280;40174;52.364;6.452;2023-06-14T11:30:23;101645.03;;;29.32;28.59
54262;BME280;40174;52.364;6.452;2023-06-14T11:32:51;101651.97;;;29.47;28.42
54262;BME280;40174;52.364;6.452;2023-06-14T11:35:18;101651.00;;;29.41;27.97
54262;BME280;40174;52.364;6.452;2023-06-14T11:37:45;101652.19;;;29.45;27.79
54262;BME280;40174;52.364;6.452;2023-06-14T11:40:13;101646.56;;;29.58;27.51
54262;BME280;40174;52.364;6.452;2023-06-14T11:42:40;101647.06;;;29.55;27.99
54262;BME280;40174;52.364;6.452;2023-06-14T11:45:08;101641.19;;;29.70;28.29
54262;BME280;40174;52.364;6.452;2023-06-14T11:47:38;101644.53;;;29.72;28.61
54262;BME280;40174;52.364;6.452;2023-06-14T11:50:06;101649.66;;;29.80;28.29
54262;BME280;40174;52.364;6.452;2023-06-14T11:52:34;101641.63;;;29.86;28.63
54262;BME280;40174;52.364;6.452;2023-06-14T11:55:02;101642.50;;;29.98;28.02
54262;BME280;40174;52.364;6.452;2023-06-14T11:57:30;101653.19;;;30.23;28.06
54262;BME280;40174;52.364;6.452;2023-06-14T12:00:00;101641.69;;;30.21;28.14
54262;BME280;40174;52.364;6.452;2023-06-14T12:02:26;101655.25;;;30.39;27.55
54262;BME280;40174;52.364;6.452;2023-06-14T12:04:55;101648.81;;;30.22;27.22
54262;BME280;40174;52.364;6.452;2023-06-14T12:07:22;101652.72;;;30.26;27.35
54262;BME280;40174;52.364;6.452;2023-06-14T12:10:06;101641.47;;;30.22;27.39
54262;BME280;40174;52.364;6.452;2023-06-14T12:12:35;101650.16;;;30.31;27.29
54262;BME280;40174;52.364;6.452;2023-06-14T12:15:03;101642.56;;;30.33;27.25
54262;BME280;40174;52.364;6.452;2023-06-14T12:17:32;101629.41;;;30.42;27.49
54262;BME280;40174;52.364;6.452;2023-06-14T12:20:05;101635.00;;;30.59;26.91
54262;BME280;40174;52.364;6.452;2023-06-14T12:22:33;101652.06;;;30.42;27.19
54262;BME280;40174;52.364;6.452;2023-06-14T12:24:59;101648.88;;;30.81;26.74
54262;BME280;40174;52.364;6.452;2023-06-14T12:27:26;101653.38;;;30.87;26.69
54262;BME280;40174;52.364;6.452;2023-06-14T12:30:00;101645.78;;;30.89;26.40
54262;BME280;40174;52.364;6.452;2023-06-14T12:32:27;101648.38;;;30.84;26.18
54262;BME280;40174;52.364;6.452;2023-06-14T12:34:54;101644.25;;;30.58;26.90
54262;BME280;40174;52.364;6.452;2023-06-14T12:37:22;101640.44;;;30.82;26.83
54262;BME280;40174;52.364;6.452;2023-06-14T12:39:48;101637.47;;;30.96;26.63
54262;BME280;40174;52.364;6.452;2023-06-14T12:42:16;101652.03;;;31.13;26.43
54262;BME280;40174;52.364;6.452;2023-06-14T12:44:43;101651.47;;;30.40;25.93
54262;BME280;40174;52.364;6.452;2023-06-14T12:47:10;101653.84;;;30.72;27.08
54262;BME280;40174;52.364;6.452;2023-06-14T12:49:38;101649.13;;;30.91;27.36
54262;BME280;40174;52.364;6.452;2023-06-14T12:52:05;101648.94;;;31.10;26.08
54262;BME280;40174;52.364;6.452;2023-06-14T12:54:33;101652.41;;;31.17;26.87
54262;BME280;40174;52.364;6.452;2023-06-14T12:57:00;101653.41;;;31.27;25.93